GEC8401 WMKP-OPLA
Flight info
| Callsign | GEC8401 |
|---|---|
| Flight time | N/A |
| Altitude | 32000 |
| Route | GOGOM1B GOGOM Y351 DUBAX R325 PUT L759 MABUR/N0495F340 L759 KKJ J1 MEMID L760 DPN A589 ASARI A466 SULOM |
| Aircraft | MD11/H-SDE1E2E3FGHIJ2J3J4J5M1RWXY/LB1D1 |
Departure
| Time | 2026-04-22 10:52 |
|---|---|
| Airport | Penang International Airport (WMKP) |
Arrival
| Time | N/A |
|---|---|
| Airport | Allama Iqbal International Airport (OPLA) |
| Time | Latitude | Longitude | Altitude | Speed | Heading |
|---|---|---|---|---|---|
| 2026-04-22 09:53 | 5.28978 | 100.26444 | 30 ft | 0 kts | 312° |
| 2026-04-22 10:39 | 5.28974 | 100.26449 | 29 ft | 4 kts | 310° |
| 2026-04-22 10:39 | 5.28957 | 100.26470 | 28 ft | 4 kts | 308° |
| 2026-04-22 10:39 | 5.28943 | 100.26485 | 27 ft | 3 kts | 346° |
| 2026-04-22 10:40 | 5.28922 | 100.26489 | 29 ft | 4 kts | 17° |
| 2026-04-22 10:40 | 5.28904 | 100.26478 | 29 ft | 4 kts | 48° |
| 2026-04-22 10:40 | 5.28897 | 100.26469 | 28 ft | 0 kts | 42° |
| 2026-04-22 10:44 | 5.28899 | 100.26471 | 26 ft | 2 kts | 42° |
| 2026-04-22 10:44 | 5.28921 | 100.26491 | 29 ft | 7 kts | 42° |
| 2026-04-22 10:45 | 5.28966 | 100.26531 | 30 ft | 11 kts | 42° |
| 2026-04-22 10:45 | 5.28987 | 100.26578 | 28 ft | 12 kts | 86° |
| 2026-04-22 10:45 | 5.28939 | 100.26651 | 30 ft | 14 kts | 128° |
| 2026-04-22 10:45 | 5.28926 | 100.26700 | 31 ft | 2 kts | 64° |
| 2026-04-22 10:46 | 5.28959 | 100.26736 | 31 ft | 9 kts | 46° |
| 2026-04-22 10:46 | 5.29024 | 100.26798 | 31 ft | 16 kts | 42° |
| 2026-04-22 10:46 | 5.29090 | 100.26858 | 31 ft | 21 kts | 42° |
| 2026-04-22 10:46 | 5.29215 | 100.26970 | 31 ft | 27 kts | 41° |
| 2026-04-22 10:47 | 5.29365 | 100.27104 | 30 ft | 31 kts | 42° |
| 2026-04-22 10:47 | 5.29530 | 100.27255 | 30 ft | 33 kts | 42° |
| 2026-04-22 10:47 | 5.29709 | 100.27417 | 30 ft | 36 kts | 42° |
| 2026-04-22 10:47 | 5.29893 | 100.27584 | 29 ft | 34 kts | 42° |
| 2026-04-22 10:48 | 5.30107 | 100.27783 | 30 ft | 29 kts | 44° |
| 2026-04-22 10:48 | 5.30201 | 100.27876 | 30 ft | 27 kts | 44° |
| 2026-04-22 10:48 | 5.30327 | 100.28002 | 30 ft | 24 kts | 45° |
| 2026-04-22 10:48 | 5.30440 | 100.28111 | 30 ft | 22 kts | 44° |
| 2026-04-22 10:49 | 5.30554 | 100.28216 | 30 ft | 22 kts | 42° |
| 2026-04-22 10:49 | 5.30665 | 100.28316 | 30 ft | 21 kts | 42° |
| 2026-04-22 10:49 | 5.30769 | 100.28410 | 30 ft | 19 kts | 43° |
| 2026-04-22 10:49 | 5.30865 | 100.28499 | 30 ft | 18 kts | 43° |
| 2026-04-22 10:50 | 5.30895 | 100.28605 | 31 ft | 15 kts | 110° |
| 2026-04-22 10:50 | 5.30844 | 100.28663 | 33 ft | 7 kts | 154° |
| 2026-04-22 10:50 | 5.30800 | 100.28663 | 32 ft | 6 kts | 195° |
| 2026-04-22 10:50 | 5.30771 | 100.28642 | 32 ft | 4 kts | 221° |
| 2026-04-22 10:51 | 5.30758 | 100.28631 | 32 ft | 7 kts | 221° |
| 2026-04-22 10:51 | 5.30634 | 100.28519 | 31 ft | 54 kts | 222° |
| 2026-04-22 10:51 | 5.30170 | 100.28102 | 32 ft | 124 kts | 222° |
| 2026-04-22 10:51 | 5.29392 | 100.27393 | 33 ft | 175 kts | 223° |
| 2026-04-22 10:52 | 5.28437 | 100.26530 | 331 ft | 186 kts | 222° |
| 2026-04-22 10:52 | 5.27444 | 100.25684 | 970 ft | 187 kts | 222° |
| 2026-04-22 10:52 | 5.26489 | 100.24829 | 1745 ft | 182 kts | 225° |
| 2026-04-22 10:52 | 5.25596 | 100.23915 | 2289 ft | 186 kts | 232° |
| 2026-04-22 10:53 | 5.24887 | 100.22811 | 2737 ft | 192 kts | 247° |
| 2026-04-22 10:53 | 5.24554 | 100.21479 | 3074 ft | 205 kts | 268° |
| 2026-04-22 10:53 | 5.24682 | 100.20029 | 3453 ft | 210 kts | 286° |
| 2026-04-22 10:53 | 5.25253 | 100.18707 | 3930 ft | 210 kts | 306° |
| 2026-04-22 10:54 | 5.26273 | 100.17679 | 4363 ft | 209 kts | 330° |
| 2026-04-22 10:54 | 5.27553 | 100.17012 | 4838 ft | 206 kts | 338° |
| 2026-04-22 10:54 | 5.28885 | 100.16478 | 5298 ft | 206 kts | 339° |
| 2026-04-22 10:54 | 5.30181 | 100.15827 | 5663 ft | 212 kts | 332° |
| 2026-04-22 10:55 | 5.31460 | 100.15034 | 6021 ft | 220 kts | 329° |
| 2026-04-22 10:55 | 5.32781 | 100.14198 | 6356 ft | 228 kts | 331° |
| 2026-04-22 10:55 | 5.34160 | 100.13377 | 6703 ft | 233 kts | 332° |
| 2026-04-22 10:55 | 5.35567 | 100.12531 | 7001 ft | 240 kts | 330° |
| 2026-04-22 10:56 | 5.37002 | 100.11677 | 7268 ft | 246 kts | 331° |
| 2026-04-22 10:56 | 5.38517 | 100.10805 | 7562 ft | 255 kts | 332° |
| 2026-04-22 10:56 | 5.40078 | 100.09930 | 7920 ft | 259 kts | 332° |
| 2026-04-22 10:56 | 5.41692 | 100.09121 | 8297 ft | 262 kts | 339° |
| 2026-04-22 10:57 | 5.43448 | 100.08581 | 8574 ft | 267 kts | 351° |
| 2026-04-22 10:57 | 5.45312 | 100.08438 | 8885 ft | 270 kts | 4° |
| 2026-04-22 10:57 | 5.47177 | 100.08679 | 9269 ft | 271 kts | 13° |
| 2026-04-22 10:57 | 5.48987 | 100.09220 | 9674 ft | 271 kts | 18° |
| 2026-04-22 10:58 | 5.50845 | 100.09534 | 9981 ft | 274 kts | 359° |
| 2026-04-22 10:58 | 5.52706 | 100.09179 | 10188 ft | 283 kts | 339° |
| 2026-04-22 10:58 | 5.54457 | 100.08212 | 10357 ft | 291 kts | 327° |
| 2026-04-22 10:58 | 5.56133 | 100.07000 | 10558 ft | 304 kts | 324° |
| 2026-04-22 10:59 | 5.57856 | 100.05666 | 10792 ft | 321 kts | 323° |
| 2026-04-22 10:59 | 5.59741 | 100.04385 | 11146 ft | 333 kts | 332° |
| 2026-04-22 10:59 | 5.61829 | 100.03306 | 11532 ft | 346 kts | 337° |
| 2026-04-22 10:59 | 5.64134 | 100.02405 | 11672 ft | 365 kts | 341° |
| 2026-04-22 11:00 | 5.66575 | 100.01562 | 12148 ft | 372 kts | 341° |
| 2026-04-22 11:00 | 5.69006 | 100.00715 | 12757 ft | 377 kts | 341° |
| 2026-04-22 11:00 | 5.71482 | 99.99820 | 13436 ft | 379 kts | 340° |
| 2026-04-22 11:00 | 5.73964 | 99.98891 | 13972 ft | 382 kts | 339° |
| 2026-04-22 11:01 | 5.76455 | 99.97937 | 14493 ft | 386 kts | 339° |
| 2026-04-22 11:01 | 5.78977 | 99.96959 | 14984 ft | 390 kts | 339° |
| 2026-04-22 11:01 | 5.81519 | 99.95967 | 15445 ft | 394 kts | 339° |
| 2026-04-22 11:01 | 5.84086 | 99.94961 | 15946 ft | 397 kts | 339° |
| 2026-04-22 11:02 | 5.86672 | 99.93946 | 16414 ft | 401 kts | 339° |
| 2026-04-22 11:02 | 5.89247 | 99.92935 | 16895 ft | 404 kts | 339° |
| 2026-04-22 11:02 | 5.91879 | 99.91902 | 17345 ft | 408 kts | 339° |
| 2026-04-22 11:02 | 5.94537 | 99.90858 | 17797 ft | 412 kts | 339° |
| 2026-04-22 11:03 | 5.97217 | 99.89805 | 18212 ft | 415 kts | 339° |
| 2026-04-22 11:03 | 5.99912 | 99.88747 | 18591 ft | 418 kts | 339° |
| 2026-04-22 11:03 | 6.02631 | 99.87679 | 18961 ft | 421 kts | 339° |
| 2026-04-22 11:03 | 6.05364 | 99.86606 | 19344 ft | 423 kts | 339° |
| 2026-04-22 11:04 | 6.08110 | 99.85528 | 19713 ft | 425 kts | 339° |
| 2026-04-22 11:04 | 6.10842 | 99.84454 | 20060 ft | 428 kts | 340° |
| 2026-04-22 11:04 | 6.13620 | 99.83363 | 20427 ft | 430 kts | 340° |
| 2026-04-22 11:04 | 6.16412 | 99.82266 | 20850 ft | 432 kts | 340° |
| 2026-04-22 11:05 | 6.19218 | 99.81164 | 21224 ft | 434 kts | 340° |
| 2026-04-22 11:05 | 6.22040 | 99.80055 | 21614 ft | 437 kts | 340° |
| 2026-04-22 11:05 | 6.24885 | 99.78938 | 21976 ft | 440 kts | 340° |
| 2026-04-22 11:05 | 6.27741 | 99.77815 | 22353 ft | 442 kts | 340° |
| 2026-04-22 11:06 | 6.30616 | 99.76683 | 22748 ft | 445 kts | 340° |
| 2026-04-22 11:06 | 6.33513 | 99.75543 | 23121 ft | 448 kts | 340° |
| 2026-04-22 11:06 | 6.36385 | 99.74414 | 23481 ft | 451 kts | 340° |
| 2026-04-22 11:06 | 6.39313 | 99.73261 | 23825 ft | 453 kts | 340° |
| 2026-04-22 11:07 | 6.42258 | 99.72103 | 24182 ft | 455 kts | 340° |
| 2026-04-22 11:07 | 6.45215 | 99.70940 | 24542 ft | 458 kts | 340° |
| 2026-04-22 11:07 | 6.48187 | 99.69771 | 24906 ft | 460 kts | 340° |
| 2026-04-22 11:07 | 6.51178 | 99.68594 | 25251 ft | 463 kts | 340° |
| 2026-04-22 11:08 | 6.54183 | 99.67412 | 25610 ft | 465 kts | 340° |
| 2026-04-22 11:08 | 6.57203 | 99.66223 | 25956 ft | 467 kts | 340° |
| 2026-04-22 11:08 | 6.60197 | 99.65045 | 26302 ft | 470 kts | 340° |
| 2026-04-22 11:08 | 6.63250 | 99.63843 | 26689 ft | 472 kts | 341° |
| 2026-04-22 11:09 | 6.66323 | 99.62633 | 27033 ft | 475 kts | 341° |
| 2026-04-22 11:09 | 6.69406 | 99.61419 | 27374 ft | 477 kts | 341° |
| 2026-04-22 11:09 | 6.72509 | 99.60197 | 27704 ft | 480 kts | 341° |
| 2026-04-22 11:09 | 6.75625 | 99.58970 | 28037 ft | 482 kts | 341° |
| 2026-04-22 11:10 | 6.78755 | 99.57737 | 28350 ft | 484 kts | 341° |
| 2026-04-22 11:10 | 6.81900 | 99.56498 | 28674 ft | 487 kts | 341° |
| 2026-04-22 11:10 | 6.85060 | 99.55253 | 28988 ft | 489 kts | 341° |
| 2026-04-22 11:10 | 6.88235 | 99.54001 | 29293 ft | 491 kts | 341° |
| 2026-04-22 11:11 | 6.91386 | 99.52760 | 29580 ft | 494 kts | 341° |
| 2026-04-22 11:11 | 6.94588 | 99.51497 | 29853 ft | 496 kts | 341° |
| 2026-04-22 11:11 | 6.97796 | 99.50229 | 30130 ft | 496 kts | 340° |
| 2026-04-22 11:11 | 7.00934 | 99.48770 | 30433 ft | 498 kts | 333° |
| 2026-04-22 11:12 | 7.03799 | 99.46802 | 30771 ft | 500 kts | 322° |
| 2026-04-22 11:12 | 7.06320 | 99.44384 | 31121 ft | 501 kts | 315° |
| 2026-04-22 11:12 | 7.08633 | 99.41763 | 31465 ft | 500 kts | 313° |
| 2026-04-22 11:12 | 7.10851 | 99.39140 | 31812 ft | 498 kts | 313° |
| 2026-04-22 11:13 | 7.13116 | 99.36499 | 31985 ft | 500 kts | 313° |
| 2026-04-22 11:13 | 7.17794 | 99.31282 | 32036 ft | 504 kts | 315° |
| 2026-04-22 11:14 | 7.22582 | 99.26124 | 32039 ft | 504 kts | 315° |
| 2026-04-22 11:14 | 7.27387 | 99.20982 | 32044 ft | 504 kts | 315° |
| 2026-04-22 11:15 | 7.32155 | 99.15867 | 32042 ft | 504 kts | 315° |
| 2026-04-22 11:15 | 7.36950 | 99.10714 | 32044 ft | 504 kts | 315° |
| 2026-04-22 11:16 | 7.41739 | 99.05565 | 31915 ft | 505 kts | 315° |
| 2026-04-22 11:16 | 7.46522 | 99.00419 | 31790 ft | 503 kts | 315° |
| 2026-04-22 11:17 | 7.51273 | 98.95308 | 31779 ft | 503 kts | 315° |
| 2026-04-22 11:17 | 7.56059 | 98.90156 | 31782 ft | 505 kts | 315° |
| 2026-04-22 11:18 | 7.60864 | 98.84982 | 31782 ft | 505 kts | 315° |
| 2026-04-22 11:18 | 7.65661 | 98.79809 | 31785 ft | 505 kts | 315° |
| 2026-04-22 11:19 | 7.70456 | 98.74639 | 31780 ft | 505 kts | 315° |
| 2026-04-22 11:19 | 7.75219 | 98.69501 | 31779 ft | 505 kts | 315° |
| 2026-04-22 11:20 | 7.80019 | 98.64320 | 31782 ft | 505 kts | 315° |
| 2026-04-22 11:20 | 7.84818 | 98.59140 | 31782 ft | 505 kts | 315° |
| 2026-04-22 11:21 | 7.89619 | 98.53956 | 31780 ft | 505 kts | 315° |
| 2026-04-22 11:21 | 7.94387 | 98.48806 | 31780 ft | 506 kts | 315° |
| 2026-04-22 11:22 | 7.99183 | 98.43625 | 31775 ft | 506 kts | 315° |
| 2026-04-22 11:22 | 8.03978 | 98.38443 | 31775 ft | 506 kts | 315° |
| 2026-04-22 11:23 | 8.08815 | 98.33299 | 31773 ft | 505 kts | 317° |
| 2026-04-22 11:23 | 8.13923 | 98.28438 | 31774 ft | 504 kts | 319° |
| 2026-04-22 11:24 | 8.19090 | 98.23705 | 31774 ft | 504 kts | 319° |
| 2026-04-22 11:24 | 8.24273 | 98.18933 | 31780 ft | 505 kts | 319° |
| 2026-04-22 11:25 | 8.29445 | 98.14138 | 31784 ft | 504 kts | 319° |
| 2026-04-22 11:25 | 8.34607 | 98.09341 | 31790 ft | 504 kts | 319° |
| 2026-04-22 11:26 | 8.39727 | 98.04580 | 31792 ft | 504 kts | 319° |
| 2026-04-22 11:26 | 8.44896 | 97.99774 | 31799 ft | 504 kts | 319° |
| 2026-04-22 11:27 | 8.50061 | 97.94975 | 31797 ft | 504 kts | 319° |
| 2026-04-22 11:27 | 8.55194 | 97.90219 | 31798 ft | 504 kts | 319° |
| 2026-04-22 11:28 | 8.60355 | 97.85442 | 31799 ft | 504 kts | 319° |
| 2026-04-22 11:28 | 8.65521 | 97.80659 | 31799 ft | 504 kts | 318° |
| 2026-04-22 11:29 | 8.70689 | 97.75871 | 31797 ft | 504 kts | 318° |
| 2026-04-22 11:29 | 8.75852 | 97.71086 | 31796 ft | 504 kts | 318° |
| 2026-04-22 11:30 | 8.80978 | 97.66332 | 31799 ft | 504 kts | 318° |
| 2026-04-22 11:30 | 8.86140 | 97.61536 | 31799 ft | 504 kts | 318° |
| 2026-04-22 11:31 | 8.91275 | 97.56724 | 31797 ft | 504 kts | 317° |
| 2026-04-22 11:31 | 8.96402 | 97.51907 | 31799 ft | 504 kts | 317° |
| 2026-04-22 11:32 | 9.01504 | 97.47116 | 31796 ft | 504 kts | 317° |
| 2026-04-22 11:32 | 9.06645 | 97.42289 | 31796 ft | 504 kts | 317° |
| 2026-04-22 11:33 | 9.11784 | 97.37462 | 31799 ft | 504 kts | 317° |
| 2026-04-22 11:33 | 9.16917 | 97.32638 | 31799 ft | 504 kts | 317° |
| 2026-04-22 11:34 | 9.22019 | 97.27842 | 31796 ft | 504 kts | 317° |
| 2026-04-22 11:34 | 9.27157 | 97.23009 | 31798 ft | 504 kts | 317° |
| 2026-04-22 11:35 | 9.32301 | 97.18170 | 31797 ft | 504 kts | 317° |
| 2026-04-22 11:35 | 9.37425 | 97.13346 | 31799 ft | 504 kts | 317° |
| 2026-04-22 11:36 | 9.42531 | 97.08538 | 31796 ft | 503 kts | 317° |
| 2026-04-22 11:36 | 9.47656 | 97.03708 | 31798 ft | 503 kts | 317° |
| 2026-04-22 11:37 | 9.52774 | 96.98878 | 31803 ft | 502 kts | 317° |
| 2026-04-22 11:37 | 9.57889 | 96.94053 | 31802 ft | 502 kts | 317° |
| 2026-04-22 11:38 | 9.62963 | 96.89266 | 31804 ft | 502 kts | 317° |
| 2026-04-22 11:38 | 9.70635 | 96.82025 | 31805 ft | 503 kts | 317° |
| 2026-04-22 11:39 | 9.75760 | 96.77186 | 31801 ft | 503 kts | 317° |
| 2026-04-22 11:39 | 9.80849 | 96.72378 | 31801 ft | 504 kts | 317° |
| 2026-04-22 11:40 | 9.85976 | 96.67532 | 31804 ft | 504 kts | 317° |
| 2026-04-22 11:40 | 9.91101 | 96.62686 | 31804 ft | 504 kts | 317° |
| 2026-04-22 11:41 | 9.96220 | 96.57843 | 31804 ft | 504 kts | 317° |
| 2026-04-22 11:41 | 10.01342 | 96.52995 | 31807 ft | 504 kts | 317° |
| 2026-04-22 11:42 | 10.06433 | 96.48175 | 31804 ft | 504 kts | 317° |
| 2026-04-22 11:42 | 10.11421 | 96.43171 | 31804 ft | 505 kts | 313° |
| 2026-04-22 11:43 | 10.16045 | 96.37810 | 31807 ft | 505 kts | 310° |
| 2026-04-22 11:43 | 10.20603 | 96.32381 | 31807 ft | 505 kts | 310° |
| 2026-04-22 11:44 | 10.25183 | 96.26979 | 31807 ft | 505 kts | 311° |
| 2026-04-22 11:44 | 10.29755 | 96.21626 | 31807 ft | 505 kts | 311° |
| 2026-04-22 11:45 | 10.34362 | 96.16236 | 31811 ft | 505 kts | 311° |
| 2026-04-22 11:45 | 10.38964 | 96.10847 | 31809 ft | 505 kts | 311° |
| 2026-04-22 11:46 | 10.43568 | 96.05453 | 31807 ft | 506 kts | 311° |
| 2026-04-22 11:46 | 10.48143 | 96.00089 | 31808 ft | 506 kts | 311° |
| 2026-04-22 11:47 | 10.52750 | 95.94684 | 31809 ft | 505 kts | 310° |
| 2026-04-22 11:47 | 10.57353 | 95.89283 | 31809 ft | 505 kts | 310° |
| 2026-04-22 11:48 | 10.61945 | 95.83892 | 31812 ft | 505 kts | 310° |
| 2026-04-22 11:48 | 10.66505 | 95.78529 | 31812 ft | 505 kts | 310° |
| 2026-04-22 11:49 | 10.71101 | 95.73120 | 31807 ft | 505 kts | 310° |
| 2026-04-22 11:49 | 10.75696 | 95.67713 | 31808 ft | 506 kts | 310° |
| 2026-04-22 11:50 | 10.80292 | 95.62305 | 31809 ft | 506 kts | 310° |
| 2026-04-22 11:50 | 10.84859 | 95.56930 | 31807 ft | 506 kts | 310° |
| 2026-04-22 11:51 | 10.89468 | 95.51502 | 31807 ft | 505 kts | 310° |
| 2026-04-22 11:51 | 10.94059 | 95.46092 | 31806 ft | 504 kts | 310° |
| 2026-04-22 11:52 | 10.98645 | 95.40685 | 31810 ft | 504 kts | 310° |
| 2026-04-22 11:52 | 11.03223 | 95.35285 | 31810 ft | 504 kts | 310° |
| 2026-04-22 11:53 | 11.07778 | 95.29909 | 31809 ft | 505 kts | 310° |
| 2026-04-22 11:53 | 11.12355 | 95.24505 | 31807 ft | 505 kts | 310° |
| 2026-04-22 11:54 | 11.16952 | 95.19073 | 31807 ft | 505 kts | 310° |
| 2026-04-22 11:54 | 11.21529 | 95.13656 | 31810 ft | 505 kts | 310° |
| 2026-04-22 11:55 | 11.26108 | 95.08233 | 31813 ft | 505 kts | 310° |
| 2026-04-22 11:55 | 11.30654 | 95.02852 | 31811 ft | 504 kts | 310° |
| 2026-04-22 11:56 | 11.35224 | 94.97440 | 31811 ft | 504 kts | 310° |
| 2026-04-22 11:56 | 11.39796 | 94.92026 | 31813 ft | 504 kts | 310° |
| 2026-04-22 11:57 | 11.44359 | 94.86617 | 31806 ft | 504 kts | 310° |
| 2026-04-22 11:57 | 11.48156 | 94.82114 | 31807 ft | 504 kts | 310° |